Gardner, Kansas
Current Conditions -  °F | °C
As of 11:53 AM on Thursday 29 Jan 2015 (Local Time) from KIXD Reporting Station
Overcast Overcast  
Wind Chill: 32°   Ceiling: 3200
Heat Index: 41°   Visibility: 10mi
Dew Point: 27°   Wind: 21mph
Humidity: 57%   Direction: 320°NW
Pressure: 30.37"   Gusts: 29mph
Location:  38.81°N, 94.93°W
Report Text: KIXD 291753Z 32018G25KT 10SM OVC032 05/M03 A3037 RMK AO2 PK WND 32027/1658 SLP284 T00501028 10050 20028 51030
Loading
Personal Weather Stations






























Interactive Weather Map New forecast layout! Learn more

10-Day Weather Forecast

Advertisements
Track Severe Weather on mobile